sensor_id;sensor_type;location;lat;lon;timestamp;P1;durP1;ratioP1;P2;durP2;ratioP2
52396;SDS011;38322;53.108;6.308;2023-02-04T06:00:55;37.20;;;7.38;;
52396;SDS011;38322;53.108;6.308;2023-02-04T06:03:21;39.95;;;9.20;;
52396;SDS011;38322;53.108;6.308;2023-02-04T06:05:46;50.80;;;8.75;;
52396;SDS011;38322;53.108;6.308;2023-02-04T06:08:12;48.60;;;8.48;;
52396;SDS011;38322;53.108;6.308;2023-02-04T06:10:40;47.00;;;9.32;;
52396;SDS011;38322;53.108;6.308;2023-02-04T06:13:07;58.53;;;7.03;;
52396;SDS011;38322;53.108;6.308;2023-02-04T06:15:32;44.72;;;9.02;;
52396;SDS011;38322;53.108;6.308;2023-02-04T06:17:58;38.05;;;7.18;;
52396;SDS011;38322;53.108;6.308;2023-02-04T06:20:24;48.42;;;6.00;;
52396;SDS011;38322;53.108;6.308;2023-02-04T06:22:50;40.13;;;7.57;;
52396;SDS011;38322;53.108;6.308;2023-02-04T06:25:17;28.95;;;5.30;;
52396;SDS011;38322;53.108;6.308;2023-02-04T06:27:43;40.97;;;8.38;;
52396;SDS011;38322;53.108;6.308;2023-02-04T06:30:09;41.08;;;7.53;;
52396;SDS011;38322;53.108;6.308;2023-02-04T06:32:35;30.20;;;4.90;;
52396;SDS011;38322;53.108;6.308;2023-02-04T06:35:01;33.58;;;6.65;;
52396;SDS011;38322;53.108;6.308;2023-02-04T06:37:27;45.30;;;7.32;;
52396;SDS011;38322;53.108;6.308;2023-02-04T06:39:53;36.78;;;9.90;;
52396;SDS011;38322;53.108;6.308;2023-02-04T06:42:19;35.58;;;5.90;;
52396;SDS011;38322;53.108;6.308;2023-02-04T06:44:45;41.20;;;7.07;;
52396;SDS011;38322;53.108;6.308;2023-02-04T06:47:11;41.42;;;9.13;;
52396;SDS011;38322;53.108;6.308;2023-02-04T06:49:37;33.33;;;7.70;;
52396;SDS011;38322;53.108;6.308;2023-02-04T06:52:02;41.22;;;6.82;;
52396;SDS011;38322;53.108;6.308;2023-02-04T06:54:29;44.25;;;9.00;;
52396;SDS011;38322;53.108;6.308;2023-02-04T06:56:55;39.05;;;6.47;;
52396;SDS011;38322;53.108;6.308;2023-02-04T06:59:27;39.97;;;6.40;;
52396;SDS011;38322;53.108;6.308;2023-02-04T07:01:56;30.40;;;6.07;;
52396;SDS011;38322;53.108;6.308;2023-02-04T07:04:22;28.75;;;5.25;;
52396;SDS011;38322;53.108;6.308;2023-02-04T07:06:48;33.58;;;6.90;;
52396;SDS011;38322;53.108;6.308;2023-02-04T07:09:14;31.45;;;4.97;;
52396;SDS011;38322;53.108;6.308;2023-02-04T07:11:39;27.83;;;6.80;;
52396;SDS011;38322;53.108;6.308;2023-02-04T07:14:05;27.67;;;4.57;;
52396;SDS011;38322;53.108;6.308;2023-02-04T07:16:31;26.73;;;5.00;;
52396;SDS011;38322;53.108;6.308;2023-02-04T07:18:57;27.27;;;3.97;;
52396;SDS011;38322;53.108;6.308;2023-02-04T07:21:23;21.45;;;4.93;;
52396;SDS011;38322;53.108;6.308;2023-02-04T07:23:48;41.05;;;7.32;;
52396;SDS011;38322;53.108;6.308;2023-02-04T07:26:14;31.88;;;6.03;;
52396;SDS011;38322;53.108;6.308;2023-02-04T07:28:40;27.25;;;4.55;;
52396;SDS011;38322;53.108;6.308;2023-02-04T07:31:07;29.10;;;5.05;;
52396;SDS011;38322;53.108;6.308;2023-02-04T07:33:33;22.40;;;3.45;;
52396;SDS011;38322;53.108;6.308;2023-02-04T07:35:59;19.60;;;3.40;;
52396;SDS011;38322;53.108;6.308;2023-02-04T07:38:25;15.48;;;4.28;;
52396;SDS011;38322;53.108;6.308;2023-02-04T07:40:51;22.45;;;4.07;;
52396;SDS011;38322;53.108;6.308;2023-02-04T07:43:16;14.18;;;3.92;;
52396;SDS011;38322;53.108;6.308;2023-02-04T07:45:42;17.50;;;2.85;;
52396;SDS011;38322;53.108;6.308;2023-02-04T07:48:08;21.02;;;6.28;;
52396;SDS011;38322;53.108;6.308;2023-02-04T07:50:35;22.52;;;3.95;;
52396;SDS011;38322;53.108;6.308;2023-02-04T07:53:01;20.83;;;4.45;;
52396;SDS011;38322;53.108;6.308;2023-02-04T07:55:27;22.77;;;4.20;;
52396;SDS011;38322;53.108;6.308;2023-02-04T07:57:53;16.92;;;3.47;;
52396;SDS011;38322;53.108;6.308;2023-02-04T08:00:19;17.67;;;3.42;;
52396;SDS011;38322;53.108;6.308;2023-02-04T08:02:45;15.98;;;3.03;;
52396;SDS011;38322;53.108;6.308;2023-02-04T08:05:11;12.60;;;2.80;;
52396;SDS011;38322;53.108;6.308;2023-02-04T08:07:37;14.80;;;3.78;;
52396;SDS011;38322;53.108;6.308;2023-02-04T08:10:03;11.75;;;3.20;;
52396;SDS011;38322;53.108;6.308;2023-02-04T08:12:31;10.35;;;2.75;;
52396;SDS011;38322;53.108;6.308;2023-02-04T08:14:57;14.80;;;3.60;;
52396;SDS011;38322;53.108;6.308;2023-02-04T08:17:23;14.57;;;3.17;;
52396;SDS011;38322;53.108;6.308;2023-02-04T08:19:49;24.65;;;3.42;;
52396;SDS011;38322;53.108;6.308;2023-02-04T08:22:15;19.00;;;2.97;;
52396;SDS011;38322;53.108;6.308;2023-02-04T08:24:41;18.20;;;3.30;;
52396;SDS011;38322;53.108;6.308;2023-02-04T08:27:07;11.35;;;2.63;;
52396;SDS011;38322;53.108;6.308;2023-02-04T08:29:33;19.83;;;2.63;;
52396;SDS011;38322;53.108;6.308;2023-02-04T08:31:58;14.10;;;2.97;;
52396;SDS011;38322;53.108;6.308;2023-02-04T08:34:24;20.50;;;4.18;;
52396;SDS011;38322;53.108;6.308;2023-02-04T08:36:50;18.27;;;3.03;;
52396;SDS011;38322;53.108;6.308;2023-02-04T08:39:16;13.52;;;2.95;;
52396;SDS011;38322;53.108;6.308;2023-02-04T08:41:42;19.23;;;3.20;;
52396;SDS011;38322;53.108;6.308;2023-02-04T08:44:08;17.83;;;3.45;;
52396;SDS011;38322;53.108;6.308;2023-02-04T08:46:34;29.20;;;3.50;;
52396;SDS011;38322;53.108;6.308;2023-02-04T08:48:59;10.23;;;2.55;;
52396;SDS011;38322;53.108;6.308;2023-02-04T08:51:26;18.35;;;3.67;;
52396;SDS011;38322;53.108;6.308;2023-02-04T08:53:52;21.00;;;3.60;;
52396;SDS011;38322;53.108;6.308;2023-02-04T08:56:17;16.38;;;4.13;;
52396;SDS011;38322;53.108;6.308;2023-02-04T08:58:44;12.23;;;2.33;;
52396;SDS011;38322;53.108;6.308;2023-02-04T09:01:10;15.57;;;3.95;;
52396;SDS011;38322;53.108;6.308;2023-02-04T09:03:37;13.05;;;3.50;;
52396;SDS011;38322;53.108;6.308;2023-02-04T09:06:03;13.38;;;2.65;;
52396;SDS011;38322;53.108;6.308;2023-02-04T09:08:29;15.15;;;1.77;;
52396;SDS011;38322;53.108;6.308;2023-02-04T09:10:55;15.75;;;2.13;;
52396;SDS011;38322;53.108;6.308;2023-02-04T09:13:21;13.50;;;2.30;;
52396;SDS011;38322;53.108;6.308;2023-02-04T09:15:47;10.88;;;1.70;;
52396;SDS011;38322;53.108;6.308;2023-02-04T09:18:13;14.50;;;2.45;;
52396;SDS011;38322;53.108;6.308;2023-02-04T09:20:41;9.30;;;1.60;;
52396;SDS011;38322;53.108;6.308;2023-02-04T09:23:08;6.03;;;2.00;;
52396;SDS011;38322;53.108;6.308;2023-02-04T09:25:37;9.40;;;1.45;;
52396;SDS011;38322;53.108;6.308;2023-02-04T09:28:03;11.38;;;1.80;;
52396;SDS011;38322;53.108;6.308;2023-02-04T09:30:30;9.98;;;1.95;;
52396;SDS011;38322;53.108;6.308;2023-02-04T09:32:56;14.23;;;3.30;;
52396;SDS011;38322;53.108;6.308;2023-02-04T09:35:22;23.27;;;3.13;;
52396;SDS011;38322;53.108;6.308;2023-02-04T09:37:47;11.85;;;1.45;;
52396;SDS011;38322;53.108;6.308;2023-02-04T09:40:15;22.50;;;3.95;;
52396;SDS011;38322;53.108;6.308;2023-02-04T09:42:42;9.80;;;1.40;;
52396;SDS011;38322;53.108;6.308;2023-02-04T09:45:12;9.90;;;2.05;;
52396;SDS011;38322;53.108;6.308;2023-02-04T09:47:42;15.82;;;1.80;;
52396;SDS011;38322;53.108;6.308;2023-02-04T09:50:11;8.20;;;1.65;;
52396;SDS011;38322;53.108;6.308;2023-02-04T09:52:39;19.33;;;2.08;;
52396;SDS011;38322;53.108;6.308;2023-02-04T09:55:08;12.95;;;1.45;;
52396;SDS011;38322;53.108;6.308;2023-02-04T09:57:38;12.35;;;1.42;;
52396;SDS011;38322;53.108;6.308;2023-02-04T10:00:15;8.40;;;1.77;;
52396;SDS011;38322;53.108;6.308;2023-02-04T10:02:44;10.80;;;2.13;;
52396;SDS011;38322;53.108;6.308;2023-02-04T10:05:12;11.23;;;1.98;;
52396;SDS011;38322;53.108;6.308;2023-02-04T10:07:40;12.40;;;1.77;;
52396;SDS011;38322;53.108;6.308;2023-02-04T10:10:11;12.40;;;1.73;;
52396;SDS011;38322;53.108;6.308;2023-02-04T10:12:47;8.90;;;2.97;;
52396;SDS011;38322;53.108;6.308;2023-02-04T10:15:17;8.38;;;1.73;;
52396;SDS011;38322;53.108;6.308;2023-02-04T10:17:44;12.82;;;2.08;;
52396;SDS011;38322;53.108;6.308;2023-02-04T10:20:14;8.73;;;1.50;;
52396;SDS011;38322;53.108;6.308;2023-02-04T10:22:42;12.38;;;1.75;;
52396;SDS011;38322;53.108;6.308;2023-02-04T10:25:15;7.65;;;1.25;;
52396;SDS011;38322;53.108;6.308;2023-02-04T10:27:51;13.60;;;2.70;;
52396;SDS011;38322;53.108;6.308;2023-02-04T10:30:26;7.60;;;0.95;;
52396;SDS011;38322;53.108;6.308;2023-02-04T10:32:57;15.82;;;1.40;;
52396;SDS011;38322;53.108;6.308;2023-02-04T10:35:24;14.75;;;3.10;;
52396;SDS011;38322;53.108;6.308;2023-02-04T10:38:03;12.68;;;2.92;;
52396;SDS011;38322;53.108;6.308;2023-02-04T10:40:31;11.40;;;3.55;;
52396;SDS011;38322;53.108;6.308;2023-02-04T10:42:59;12.77;;;2.03;;
52396;SDS011;38322;53.108;6.308;2023-02-04T10:45:31;12.80;;;1.20;;
52396;SDS011;38322;53.108;6.308;2023-02-04T10:47:57;14.32;;;2.50;;
52396;SDS011;38322;53.108;6.308;2023-02-04T10:50:25;9.75;;;2.17;;
52396;SDS011;38322;53.108;6.308;2023-02-04T10:52:54;15.77;;;2.60;;
52396;SDS011;38322;53.108;6.308;2023-02-04T10:55:42;15.90;;;1.73;;
52396;SDS011;38322;53.108;6.308;2023-02-04T10:58:10;7.40;;;2.28;;
52396;SDS011;38322;53.108;6.308;2023-02-04T11:00:39;18.10;;;3.50;;
52396;SDS011;38322;53.108;6.308;2023-02-04T11:03:08;16.30;;;1.60;;
52396;SDS011;38322;53.108;6.308;2023-02-04T11:05:39;10.38;;;2.30;;
52396;SDS011;38322;53.108;6.308;2023-02-04T11:08:20;12.75;;;1.80;;
52396;SDS011;38322;53.108;6.308;2023-02-04T11:10:58;11.07;;;2.28;;
52396;SDS011;38322;53.108;6.308;2023-02-04T11:13:42;7.88;;;1.45;;
52396;SDS011;38322;53.108;6.308;2023-02-04T11:18:48;5.45;;;1.92;;
52396;SDS011;38322;53.108;6.308;2023-02-04T11:21:25;12.55;;;3.13;;
52396;SDS011;38322;53.108;6.308;2023-02-04T11:24:03;12.55;;;2.17;;
52396;SDS011;38322;53.108;6.308;2023-02-04T11:26:31;7.88;;;2.72;;
52396;SDS011;38322;53.108;6.308;2023-02-04T11:31:27;13.70;;;1.85;;
52396;SDS011;38322;53.108;6.308;2023-02-04T11:34:07;10.93;;;2.72;;
52396;SDS011;38322;53.108;6.308;2023-02-04T11:36:48;20.73;;;2.80;;
52396;SDS011;38322;53.108;6.308;2023-02-04T11:39:19;11.25;;;2.20;;
52396;SDS011;38322;53.108;6.308;2023-02-04T11:41:45;8.20;;;1.60;;
52396;SDS011;38322;53.108;6.308;2023-02-04T11:44:12;10.05;;;3.08;;
52396;SDS011;38322;53.108;6.308;2023-02-04T11:46:39;8.93;;;2.67;;
52396;SDS011;38322;53.108;6.308;2023-02-04T11:49:08;9.00;;;2.20;;
52396;SDS011;38322;53.108;6.308;2023-02-04T11:51:42;16.58;;;2.28;;
52396;SDS011;38322;53.108;6.308;2023-02-04T11:54:11;9.65;;;1.38;;
52396;SDS011;38322;53.108;6.308;2023-02-04T11:56:40;9.02;;;1.30;;
52396;SDS011;38322;53.108;6.308;2023-02-04T11:59:07;9.38;;;1.50;;
52396;SDS011;38322;53.108;6.308;2023-02-04T12:01:35;13.82;;;1.40;;
52396;SDS011;38322;53.108;6.308;2023-02-04T12:04:02;7.97;;;1.25;;
52396;SDS011;38322;53.108;6.308;2023-02-04T12:06:33;11.10;;;1.48;;
52396;SDS011;38322;53.108;6.308;2023-02-04T12:11:49;9.30;;;1.27;;
52396;SDS011;38322;53.108;6.308;2023-02-04T12:14:17;8.10;;;3.15;;
52396;SDS011;38322;53.108;6.308;2023-02-04T12:16:44;9.32;;;1.23;;
52396;SDS011;38322;53.108;6.308;2023-02-04T12:19:12;8.68;;;1.65;;
52396;SDS011;38322;53.108;6.308;2023-02-04T12:21:38;13.30;;;1.58;;
52396;SDS011;38322;53.108;6.308;2023-02-04T12:24:04;5.25;;;1.02;;
52396;SDS011;38322;53.108;6.308;2023-02-04T12:26:31;13.50;;;1.60;;
52396;SDS011;38322;53.108;6.308;2023-02-04T12:28:56;14.48;;;1.70;;
52396;SDS011;38322;53.108;6.308;2023-02-04T12:31:27;9.57;;;1.40;;
52396;SDS011;38322;53.108;6.308;2023-02-04T12:33:53;20.00;;;2.65;;
52396;SDS011;38322;53.108;6.308;2023-02-04T12:36:19;13.00;;;1.80;;
52396;SDS011;38322;53.108;6.308;2023-02-04T12:38:45;10.38;;;2.75;;
52396;SDS011;38322;53.108;6.308;2023-02-04T12:41:11;8.77;;;2.15;;
52396;SDS011;38322;53.108;6.308;2023-02-04T12:43:37;10.30;;;1.23;;
52396;SDS011;38322;53.108;6.308;2023-02-04T12:46:02;12.48;;;2.00;;
52396;SDS011;38322;53.108;6.308;2023-02-04T12:48:29;9.38;;;1.77;;
52396;SDS011;38322;53.108;6.308;2023-02-04T12:50:55;7.07;;;1.30;;
52396;SDS011;38322;53.108;6.308;2023-02-04T12:53:21;8.70;;;1.40;;
52396;SDS011;38322;53.108;6.308;2023-02-04T12:55:47;8.13;;;1.50;;
52396;SDS011;38322;53.108;6.308;2023-02-04T12:58:13;12.65;;;1.38;;
52396;SDS011;38322;53.108;6.308;2023-02-04T13:00:39;9.32;;;1.30;;
52396;SDS011;38322;53.108;6.308;2023-02-04T13:03:06;8.27;;;1.13;;
52396;SDS011;38322;53.108;6.308;2023-02-04T13:05:32;8.40;;;1.13;;
52396;SDS011;38322;53.108;6.308;2023-02-04T13:08:00;7.85;;;1.25;;
52396;SDS011;38322;53.108;6.308;2023-02-04T13:10:26;5.95;;;1.00;;
52396;SDS011;38322;53.108;6.308;2023-02-04T13:12:52;8.20;;;1.20;;
52396;SDS011;38322;53.108;6.308;2023-02-04T13:15:18;10.25;;;1.92;;
52396;SDS011;38322;53.108;6.308;2023-02-04T13:17:44;8.93;;;1.65;;
52396;SDS011;38322;53.108;6.308;2023-02-04T13:20:10;7.43;;;1.40;;
52396;SDS011;38322;53.108;6.308;2023-02-04T13:22:37;8.93;;;1.30;;
52396;SDS011;38322;53.108;6.308;2023-02-04T13:25:03;9.25;;;1.77;;
52396;SDS011;38322;53.108;6.308;2023-02-04T13:27:29;4.78;;;1.20;;
52396;SDS011;38322;53.108;6.308;2023-02-04T13:29:56;8.10;;;4.25;;
52396;SDS011;38322;53.108;6.308;2023-02-04T13:32:22;11.52;;;1.17;;
52396;SDS011;38322;53.108;6.308;2023-02-04T13:34:48;8.88;;;1.52;;
52396;SDS011;38322;53.108;6.308;2023-02-04T13:37:14;4.75;;;1.02;;
52396;SDS011;38322;53.108;6.308;2023-02-04T13:39:40;7.93;;;1.17;;
52396;SDS011;38322;53.108;6.308;2023-02-04T13:42:05;7.90;;;1.55;;
52396;SDS011;38322;53.108;6.308;2023-02-04T13:44:31;10.30;;;1.45;;
52396;SDS011;38322;53.108;6.308;2023-02-04T13:46:57;7.85;;;0.77;;
52396;SDS011;38322;53.108;6.308;2023-02-04T13:49:23;8.20;;;1.92;;
52396;SDS011;38322;53.108;6.308;2023-02-04T13:51:49;9.65;;;1.35;;
52396;SDS011;38322;53.108;6.308;2023-02-04T13:54:15;8.05;;;1.17;;
52396;SDS011;38322;53.108;6.308;2023-02-04T13:56:41;5.22;;;1.00;;
52396;SDS011;38322;53.108;6.308;2023-02-04T13:59:06;5.88;;;0.95;;
52396;SDS011;38322;53.108;6.308;2023-02-04T14:01:32;9.30;;;1.42;;
52396;SDS011;38322;53.108;6.308;2023-02-04T14:03:58;6.53;;;1.10;;
52396;SDS011;38322;53.108;6.308;2023-02-04T14:06:24;12.20;;;2.08;;
52396;SDS011;38322;53.108;6.308;2023-02-04T14:08:57;13.60;;;1.38;;
52396;SDS011;38322;53.108;6.308;2023-02-04T14:11:24;12.52;;;1.55;;
52396;SDS011;38322;53.108;6.308;2023-02-04T14:13:50;8.05;;;0.95;;
52396;SDS011;38322;53.108;6.308;2023-02-04T14:16:16;9.00;;;1.70;;
52396;SDS011;38322;53.108;6.308;2023-02-04T14:18:41;10.77;;;0.93;;
52396;SDS011;38322;53.108;6.308;2023-02-04T14:21:07;5.28;;;0.75;;
52396;SDS011;38322;53.108;6.308;2023-02-04T14:23:33;7.18;;;2.17;;
52396;SDS011;38322;53.108;6.308;2023-02-04T14:25:59;11.82;;;1.00;;
52396;SDS011;38322;53.108;6.308;2023-02-04T14:28:25;24.50;;;1.25;;
52396;SDS011;38322;53.108;6.308;2023-02-04T14:30:51;5.28;;;0.95;;
52396;SDS011;38322;53.108;6.308;2023-02-04T14:33:18;8.82;;;1.15;;
52396;SDS011;38322;53.108;6.308;2023-02-04T14:35:45;7.88;;;2.08;;
52396;SDS011;38322;53.108;6.308;2023-02-04T14:38:11;6.65;;;0.82;;
52396;SDS011;38322;53.108;6.308;2023-02-04T14:40:40;5.50;;;0.85;;
52396;SDS011;38322;53.108;6.308;2023-02-04T14:43:07;7.63;;;2.00;;
52396;SDS011;38322;53.108;6.308;2023-02-04T14:45:35;6.63;;;1.00;;
52396;SDS011;38322;53.108;6.308;2023-02-04T14:48:02;3.50;;;0.95;;
52396;SDS011;38322;53.108;6.308;2023-02-04T14:50:28;9.13;;;1.05;;
52396;SDS011;38322;53.108;6.308;2023-02-04T14:52:54;5.88;;;0.85;;
52396;SDS011;38322;53.108;6.308;2023-02-04T14:55:22;6.65;;;1.25;;
52396;SDS011;38322;53.108;6.308;2023-02-04T14:57:48;5.97;;;0.90;;
52396;SDS011;38322;53.108;6.308;2023-02-04T15:00:15;7.05;;;0.95;;
52396;SDS011;38322;53.108;6.308;2023-02-04T15:02:41;9.57;;;1.02;;
52396;SDS011;38322;53.108;6.308;2023-02-04T15:05:07;3.75;;;0.82;;
52396;SDS011;38322;53.108;6.308;2023-02-04T15:07:34;3.65;;;0.82;;
52396;SDS011;38322;53.108;6.308;2023-02-04T15:10:00;6.25;;;1.27;;
52396;SDS011;38322;53.108;6.308;2023-02-04T15:12:26;6.50;;;0.98;;
52396;SDS011;38322;53.108;6.308;2023-02-04T15:14:52;9.88;;;1.13;;
52396;SDS011;38322;53.108;6.308;2023-02-04T15:17:17;5.80;;;0.90;;
52396;SDS011;38322;53.108;6.308;2023-02-04T15:19:43;9.90;;;1.38;;
52396;SDS011;38322;53.108;6.308;2023-02-04T15:22:09;10.95;;;1.48;;
52396;SDS011;38322;53.108;6.308;2023-02-04T15:24:37;5.10;;;0.70;;
52396;SDS011;38322;53.108;6.308;2023-02-04T15:27:03;13.05;;;1.27;;
52396;SDS011;38322;53.108;6.308;2023-02-04T15:29:29;2.80;;;0.63;;
52396;SDS011;38322;53.108;6.308;2023-02-04T15:31:55;15.00;;;1.52;;
52396;SDS011;38322;53.108;6.308;2023-02-04T15:34:21;5.15;;;0.95;;
52396;SDS011;38322;53.108;6.308;2023-02-04T15:36:47;5.43;;;0.77;;
52396;SDS011;38322;53.108;6.308;2023-02-04T15:39:13;14.05;;;1.38;;
52396;SDS011;38322;53.108;6.308;2023-02-04T15:41:39;6.80;;;1.70;;
52396;SDS011;38322;53.108;6.308;2023-02-04T15:44:04;7.70;;;1.10;;
52396;SDS011;38322;53.108;6.308;2023-02-04T15:46:31;8.73;;;1.30;;
52396;SDS011;38322;53.108;6.308;2023-02-04T15:48:59;8.00;;;1.40;;
52396;SDS011;38322;53.108;6.308;2023-02-04T15:51:25;10.85;;;0.93;;
52396;SDS011;38322;53.108;6.308;2023-02-04T15:53:51;7.05;;;1.50;;
52396;SDS011;38322;53.108;6.308;2023-02-04T15:56:17;7.90;;;1.23;;
52396;SDS011;38322;53.108;6.308;2023-02-04T15:58:43;12.43;;;3.28;;
52396;SDS011;38322;53.108;6.308;2023-02-04T16:01:09;9.23;;;2.90;;
52396;SDS011;38322;53.108;6.308;2023-02-04T16:03:35;7.95;;;2.15;;
52396;SDS011;38322;53.108;6.308;2023-02-04T16:06:01;4.75;;;1.58;;
52396;SDS011;38322;53.108;6.308;2023-02-04T16:08:26;8.25;;;3.03;;
52396;SDS011;38322;53.108;6.308;2023-02-04T16:10:52;5.75;;;2.30;;
52396;SDS011;38322;53.108;6.308;2023-02-04T16:13:18;10.35;;;2.65;;
52396;SDS011;38322;53.108;6.308;2023-02-04T16:15:45;7.68;;;2.05;;
52396;SDS011;38322;53.108;6.308;2023-02-04T16:18:10;3.53;;;1.30;;
52396;SDS011;38322;53.108;6.308;2023-02-04T16:20:36;7.47;;;1.50;;
52396;SDS011;38322;53.108;6.308;2023-02-04T16:23:03;7.88;;;1.38;;
52396;SDS011;38322;53.108;6.308;2023-02-04T16:25:31;4.00;;;1.67;;
52396;SDS011;38322;53.108;6.308;2023-02-04T16:27:57;8.18;;;0.98;;
52396;SDS011;38322;53.108;6.308;2023-02-04T16:30:23;6.45;;;2.33;;
52396;SDS011;38322;53.108;6.308;2023-02-04T16:32:49;8.48;;;1.10;;
52396;SDS011;38322;53.108;6.308;2023-02-04T16:35:15;8.75;;;0.90;;
52396;SDS011;38322;53.108;6.308;2023-02-04T16:37:41;5.63;;;1.40;;
52396;SDS011;38322;53.108;6.308;2023-02-04T16:40:08;4.72;;;1.83;;
52396;SDS011;38322;53.108;6.308;2023-02-04T16:42:35;8.80;;;0.77;;
52396;SDS011;38322;53.108;6.308;2023-02-04T16:45:01;3.67;;;0.65;;
52396;SDS011;38322;53.108;6.308;2023-02-04T16:47:26;3.97;;;0.70;;
52396;SDS011;38322;53.108;6.308;2023-02-04T16:49:53;3.03;;;0.93;;
52396;SDS011;38322;53.108;6.308;2023-02-04T16:52:24;6.30;;;1.27;;
52396;SDS011;38322;53.108;6.308;2023-02-04T16:54:49;3.17;;;0.70;;
52396;SDS011;38322;53.108;6.308;2023-02-04T16:57:15;3.90;;;0.75;;
52396;SDS011;38322;53.108;6.308;2023-02-04T16:59:42;3.05;;;0.85;;
52396;SDS011;38322;53.108;6.308;2023-02-04T17:02:09;5.88;;;0.93;;
52396;SDS011;38322;53.108;6.308;2023-02-04T17:04:35;5.13;;;1.48;;
52396;SDS011;38322;53.108;6.308;2023-02-04T17:07:01;4.35;;;1.13;;
52396;SDS011;38322;53.108;6.308;2023-02-04T17:09:27;1.90;;;0.63;;
52396;SDS011;38322;53.108;6.308;2023-02-04T17:11:53;2.95;;;1.05;;
52396;SDS011;38322;53.108;6.308;2023-02-04T17:14:19;5.15;;;0.90;;
52396;SDS011;38322;53.108;6.308;2023-02-04T17:16:45;3.50;;;1.77;;
52396;SDS011;38322;53.108;6.308;2023-02-04T17:19:13;3.08;;;1.10;;
52396;SDS011;38322;53.108;6.308;2023-02-04T17:21:41;3.47;;;1.30;;
52396;SDS011;38322;53.108;6.308;2023-02-04T17:24:09;5.95;;;1.13;;
52396;SDS011;38322;53.108;6.308;2023-02-04T17:26:36;2.92;;;0.95;;
52396;SDS011;38322;53.108;6.308;2023-02-04T17:29:04;2.97;;;1.40;;
52396;SDS011;38322;53.108;6.308;2023-02-04T17:31:31;7.03;;;2.25;;
52396;SDS011;38322;53.108;6.308;2023-02-04T17:33:57;7.30;;;1.65;;
52396;SDS011;38322;53.108;6.308;2023-02-04T17:36:23;9.40;;;1.88;;
52396;SDS011;38322;53.108;6.308;2023-02-04T17:38:49;10.18;;;1.75;;
52396;SDS011;38322;53.108;6.308;2023-02-04T17:41:15;5.70;;;2.63;;
52396;SDS011;38322;53.108;6.308;2023-02-04T17:43:41;5.05;;;1.50;;
52396;SDS011;38322;53.108;6.308;2023-02-04T17:46:07;7.63;;;1.48;;
52396;SDS011;38322;53.108;6.308;2023-02-04T17:48:33;8.05;;;1.85;;
52396;SDS011;38322;53.108;6.308;2023-02-04T17:50:59;3.50;;;1.55;;
52396;SDS011;38322;53.108;6.308;2023-02-04T17:53:25;8.15;;;2.17;;
52396;SDS011;38322;53.108;6.308;2023-02-04T17:55:51;5.88;;;2.13;;
52396;SDS011;38322;53.108;6.308;2023-02-04T17:58:22;5.65;;;2.47;;
52396;SDS011;38322;53.108;6.308;2023-02-04T18:00:50;6.97;;;3.10;;
52396;SDS011;38322;53.108;6.308;2023-02-04T18:03:18;6.07;;;3.38;;
52396;SDS011;38322;53.108;6.308;2023-02-04T18:05:46;6.45;;;3.22;;
52396;SDS011;38322;53.108;6.308;2023-02-04T18:08:15;3.92;;;2.70;;
52396;SDS011;38322;53.108;6.308;2023-02-04T18:10:46;13.65;;;3.95;;
52396;SDS011;38322;53.108;6.308;2023-02-04T18:15:43;7.28;;;2.63;;
52396;SDS011;38322;53.108;6.308;2023-02-04T18:20:39;5.47;;;3.45;;
52396;SDS011;38322;53.108;6.308;2023-02-04T18:23:08;9.75;;;3.78;;
52396;SDS011;38322;53.108;6.308;2023-02-04T18:25:39;5.75;;;4.55;;
52396;SDS011;38322;53.108;6.308;2023-02-04T18:28:15;7.95;;;3.97;;
52396;SDS011;38322;53.108;6.308;2023-02-04T18:30:43;6.45;;;4.07;;
52396;SDS011;38322;53.108;6.308;2023-02-04T18:33:15;8.40;;;3.75;;
52396;SDS011;38322;53.108;6.308;2023-02-04T18:35:45;4.53;;;3.40;;
52396;SDS011;38322;53.108;6.308;2023-02-04T18:40:53;8.05;;;2.70;;
52396;SDS011;38322;53.108;6.308;2023-02-04T18:43:37;5.32;;;3.10;;
52396;SDS011;38322;53.108;6.308;2023-02-04T18:46:09;4.45;;;2.85;;
52396;SDS011;38322;53.108;6.308;2023-02-04T18:48:52;4.05;;;2.72;;
52396;SDS011;38322;53.108;6.308;2023-02-04T18:51:31;10.77;;;4.38;;
52396;SDS011;38322;53.108;6.308;2023-02-04T18:54:00;10.00;;;2.88;;
52396;SDS011;38322;53.108;6.308;2023-02-04T18:56:46;7.93;;;2.88;;
52396;SDS011;38322;53.108;6.308;2023-02-04T18:59:14;5.75;;;2.72;;
52396;SDS011;38322;53.108;6.308;2023-02-04T19:01:42;3.72;;;2.40;;
52396;SDS011;38322;53.108;6.308;2023-02-04T19:04:12;4.85;;;3.80;;
52396;SDS011;38322;53.108;6.308;2023-02-04T19:06:44;5.30;;;3.20;;
52396;SDS011;38322;53.108;6.308;2023-02-04T19:14:14;6.72;;;3.75;;
52396;SDS011;38322;53.108;6.308;2023-02-04T19:16:45;6.90;;;3.60;;
52396;SDS011;38322;53.108;6.308;2023-02-04T19:19:24;5.75;;;3.05;;
52396;SDS011;38322;53.108;6.308;2023-02-04T19:22:03;5.68;;;3.50;;
52396;SDS011;38322;53.108;6.308;2023-02-04T19:24:52;7.32;;;3.90;;
52396;SDS011;38322;53.108;6.308;2023-02-04T19:27:25;6.78;;;3.35;;
52396;SDS011;38322;53.108;6.308;2023-02-04T19:29:56;9.05;;;4.60;;
52396;SDS011;38322;53.108;6.308;2023-02-04T19:32:25;9.27;;;3.78;;
52396;SDS011;38322;53.108;6.308;2023-02-04T19:34:57;7.20;;;4.90;;
52396;SDS011;38322;53.108;6.308;2023-02-04T19:39:54;7.53;;;5.25;;
52396;SDS011;38322;53.108;6.308;2023-02-04T19:45:00;15.38;;;5.32;;
52396;SDS011;38322;53.108;6.308;2023-02-04T19:47:39;10.55;;;5.72;;
52396;SDS011;38322;53.108;6.308;2023-02-04T19:52:47;13.70;;;7.63;;
52396;SDS011;38322;53.108;6.308;2023-02-04T19:57:41;9.88;;;4.82;;
52396;SDS011;38322;53.108;6.308;2023-02-04T20:02:47;8.23;;;5.28;;
52396;SDS011;38322;53.108;6.308;2023-02-04T20:05:15;5.65;;;3.80;;
52396;SDS011;38322;53.108;6.308;2023-02-04T20:07:44;10.43;;;4.70;;
52396;SDS011;38322;53.108;6.308;2023-02-04T20:10:15;8.10;;;4.28;;
52396;SDS011;38322;53.108;6.308;2023-02-04T20:12:43;9.20;;;6.22;;
52396;SDS011;38322;53.108;6.308;2023-02-04T20:15:12;7.68;;;5.35;;
52396;SDS011;38322;53.108;6.308;2023-02-04T20:17:48;10.55;;;5.30;;
52396;SDS011;38322;53.108;6.308;2023-02-04T20:20:22;7.88;;;5.60;;
52396;SDS011;38322;53.108;6.308;2023-02-04T20:22:51;7.85;;;5.13;;
52396;SDS011;38322;53.108;6.308;2023-02-04T20:27:58;8.82;;;4.80;;
52396;SDS011;38322;53.108;6.308;2023-02-04T20:30:33;9.73;;;5.57;;
52396;SDS011;38322;53.108;6.308;2023-02-04T20:33:08;9.00;;;4.82;;
52396;SDS011;38322;53.108;6.308;2023-02-04T20:38:10;9.93;;;5.32;;
52396;SDS011;38322;53.108;6.308;2023-02-04T20:40:40;7.07;;;4.30;;
52396;SDS011;38322;53.108;6.308;2023-02-04T20:45:37;10.27;;;5.50;;
52396;SDS011;38322;53.108;6.308;2023-02-04T20:53:23;6.55;;;4.40;;
52396;SDS011;38322;53.108;6.308;2023-02-04T20:55:54;9.90;;;5.07;;
52396;SDS011;38322;53.108;6.308;2023-02-04T20:58:21;7.55;;;5.43;;
